AIJ3111 MMRX-MMMX
Flight info
| Callsign | AIJ3111 |
|---|---|
| Flight time | 1h 16m |
| Altitude | 34000 |
| Route | ONDEV UJ53 TAM/N0446F340 UT100 ENAGA ENAGA3B |
| Aircraft | A320/M-SDE3FGHIRWY/LB1 |
Departure
| Time | 2026-05-08 23:35 |
|---|---|
| Airport | General Lucio Blanco International Airport (MMRX) |
Arrival
| Time | 2026-05-09 00:51 |
|---|---|
| Airport | Mexico City Benito Juárez International Airport (MMMX) |
| Time | Latitude | Longitude | Altitude | Speed | Heading |
|---|---|---|---|---|---|
| 2026-05-08 23:07 | 26.01137 | -98.22758 | 148 ft | 0 kts | 50° |
| 2026-05-08 23:26 | 26.01124 | -98.22778 | 148 ft | 4 kts | 70° |
| 2026-05-08 23:26 | 26.01122 | -98.22805 | 148 ft | 4 kts | 120° |
| 2026-05-08 23:27 | 26.01131 | -98.22817 | 148 ft | 1 kts | 141° |
| 2026-05-08 23:27 | 26.01132 | -98.22819 | 148 ft | 0 kts | 141° |
| 2026-05-08 23:29 | 26.01131 | -98.22818 | 148 ft | 2 kts | 142° |
| 2026-05-08 23:30 | 26.01100 | -98.22792 | 148 ft | 9 kts | 143° |
| 2026-05-08 23:30 | 26.01046 | -98.22732 | 148 ft | 13 kts | 130° |
| 2026-05-08 23:30 | 26.00968 | -98.22667 | 148 ft | 14 kts | 149° |
| 2026-05-08 23:30 | 26.00876 | -98.22626 | 148 ft | 16 kts | 184° |
| 2026-05-08 23:31 | 26.00759 | -98.22639 | 148 ft | 17 kts | 186° |
| 2026-05-08 23:31 | 26.00636 | -98.22617 | 148 ft | 20 kts | 149° |
| 2026-05-08 23:31 | 26.00521 | -98.22517 | 148 ft | 19 kts | 142° |
| 2026-05-08 23:31 | 26.00423 | -98.22432 | 149 ft | 15 kts | 143° |
| 2026-05-08 23:32 | 26.00362 | -98.22377 | 148 ft | 11 kts | 140° |
| 2026-05-08 23:32 | 26.00307 | -98.22326 | 147 ft | 10 kts | 140° |
| 2026-05-08 23:32 | 26.00252 | -98.22292 | 147 ft | 8 kts | 154° |
| 2026-05-08 23:32 | 26.00209 | -98.22260 | 147 ft | 6 kts | 144° |
| 2026-05-08 23:33 | 26.00206 | -98.22231 | 147 ft | 3 kts | 50° |
| 2026-05-08 23:33 | 26.00228 | -98.22252 | 147 ft | 6 kts | 303° |
| 2026-05-08 23:33 | 26.00242 | -98.22266 | 147 ft | 0 kts | 322° |
| 2026-05-08 23:34 | 26.00244 | -98.22268 | 147 ft | 5 kts | 322° |
| 2026-05-08 23:34 | 26.00499 | -98.22496 | 149 ft | 91 kts | 321° |
| 2026-05-08 23:34 | 26.01191 | -98.23120 | 176 ft | 157 kts | 322° |
| 2026-05-08 23:35 | 26.02012 | -98.23860 | 922 ft | 153 kts | 321° |
| 2026-05-08 23:35 | 26.02802 | -98.24665 | 1623 ft | 156 kts | 317° |
| 2026-05-08 23:35 | 26.03564 | -98.25544 | 2055 ft | 167 kts | 316° |
| 2026-05-08 23:35 | 26.04408 | -98.26557 | 2139 ft | 193 kts | 310° |
| 2026-05-08 23:36 | 26.04906 | -98.27986 | 2487 ft | 207 kts | 271° |
| 2026-05-08 23:36 | 26.04546 | -98.29573 | 2757 ft | 224 kts | 236° |
| 2026-05-08 23:36 | 26.03367 | -98.30753 | 3062 ft | 237 kts | 203° |
| 2026-05-08 23:36 | 26.01749 | -98.31137 | 3628 ft | 241 kts | 178° |
| 2026-05-08 23:37 | 26.00123 | -98.30807 | 4407 ft | 242 kts | 166° |
| 2026-05-08 23:37 | 25.98484 | -98.30335 | 5222 ft | 244 kts | 165° |
| 2026-05-08 23:37 | 25.96834 | -98.29857 | 6002 ft | 246 kts | 165° |
| 2026-05-08 23:37 | 25.95134 | -98.29363 | 6510 ft | 262 kts | 165° |
| 2026-05-08 23:38 | 25.93330 | -98.28838 | 7130 ft | 272 kts | 166° |
| 2026-05-08 23:38 | 25.91487 | -98.28303 | 7859 ft | 276 kts | 166° |
| 2026-05-08 23:38 | 25.89619 | -98.27757 | 8592 ft | 279 kts | 166° |
| 2026-05-08 23:38 | 25.87732 | -98.27204 | 9308 ft | 282 kts | 166° |
| 2026-05-08 23:39 | 25.85818 | -98.26644 | 9971 ft | 287 kts | 167° |
| 2026-05-08 23:39 | 25.83846 | -98.26068 | 10347 ft | 303 kts | 167° |
| 2026-05-08 23:39 | 25.81721 | -98.25450 | 10474 ft | 327 kts | 167° |
| 2026-05-08 23:39 | 25.79453 | -98.24792 | 10706 ft | 344 kts | 167° |
| 2026-05-08 23:40 | 25.77118 | -98.24113 | 11227 ft | 350 kts | 167° |
| 2026-05-08 23:40 | 25.74743 | -98.23417 | 11786 ft | 356 kts | 167° |
| 2026-05-08 23:40 | 25.72333 | -98.22709 | 12344 ft | 361 kts | 168° |
| 2026-05-08 23:40 | 25.70721 | -98.22236 | 12738 ft | 363 kts | 168° |
| 2026-05-08 23:41 | 25.68265 | -98.21519 | 13342 ft | 366 kts | 168° |
| 2026-05-08 23:41 | 25.65795 | -98.20801 | 13947 ft | 368 kts | 168° |
| 2026-05-08 23:41 | 25.63308 | -98.20077 | 14543 ft | 371 kts | 169° |
| 2026-05-08 23:41 | 25.59990 | -98.19126 | 15325 ft | 373 kts | 171° |
| 2026-05-08 23:42 | 25.58264 | -98.18827 | 15712 ft | 371 kts | 178° |
| 2026-05-08 23:42 | 25.54846 | -98.18481 | 16483 ft | 374 kts | 179° |
| 2026-05-08 23:42 | 25.53093 | -98.18305 | 16867 ft | 375 kts | 179° |
| 2026-05-08 23:42 | 25.50487 | -98.18045 | 17435 ft | 377 kts | 179° |
| 2026-05-08 23:43 | 25.47863 | -98.17784 | 17991 ft | 379 kts | 179° |
| 2026-05-08 23:43 | 25.45224 | -98.17521 | 18563 ft | 381 kts | 179° |
| 2026-05-08 23:43 | 25.42572 | -98.17254 | 19100 ft | 384 kts | 179° |
| 2026-05-08 23:43 | 25.39904 | -98.16981 | 19628 ft | 386 kts | 179° |
| 2026-05-08 23:44 | 25.37215 | -98.16705 | 20144 ft | 389 kts | 179° |
| 2026-05-08 23:44 | 25.34513 | -98.16427 | 20645 ft | 391 kts | 179° |
| 2026-05-08 23:44 | 25.31796 | -98.16150 | 21126 ft | 394 kts | 179° |
| 2026-05-08 23:44 | 25.29096 | -98.15876 | 21586 ft | 396 kts | 179° |
| 2026-05-08 23:45 | 25.26345 | -98.15599 | 22031 ft | 398 kts | 179° |
| 2026-05-08 23:45 | 25.23580 | -98.15321 | 22467 ft | 400 kts | 179° |
| 2026-05-08 23:45 | 25.20797 | -98.15042 | 22889 ft | 403 kts | 179° |
| 2026-05-08 23:45 | 25.18000 | -98.14764 | 23293 ft | 405 kts | 179° |
| 2026-05-08 23:46 | 25.15190 | -98.14488 | 23677 ft | 407 kts | 179° |
| 2026-05-08 23:46 | 25.12368 | -98.14209 | 24029 ft | 408 kts | 179° |
| 2026-05-08 23:46 | 25.09530 | -98.13930 | 24377 ft | 410 kts | 179° |
| 2026-05-08 23:46 | 25.06681 | -98.13646 | 24717 ft | 412 kts | 179° |
| 2026-05-08 23:47 | 25.03818 | -98.13358 | 25035 ft | 415 kts | 179° |
| 2026-05-08 23:47 | 25.00937 | -98.13065 | 25371 ft | 416 kts | 179° |
| 2026-05-08 23:47 | 24.98048 | -98.12775 | 25691 ft | 418 kts | 179° |
| 2026-05-08 23:47 | 24.95139 | -98.12483 | 25995 ft | 420 kts | 179° |
| 2026-05-08 23:48 | 24.92218 | -98.12191 | 26277 ft | 423 kts | 179° |
| 2026-05-08 23:48 | 24.89284 | -98.11897 | 26573 ft | 425 kts | 179° |
| 2026-05-08 23:48 | 24.86334 | -98.11599 | 26867 ft | 426 kts | 179° |
| 2026-05-08 23:48 | 24.83378 | -98.11303 | 27146 ft | 428 kts | 180° |
| 2026-05-08 23:49 | 24.80410 | -98.11008 | 27405 ft | 430 kts | 180° |
| 2026-05-08 23:49 | 24.77419 | -98.10709 | 27659 ft | 432 kts | 179° |
| 2026-05-08 23:49 | 24.74428 | -98.10409 | 27918 ft | 433 kts | 179° |
| 2026-05-08 23:49 | 24.71414 | -98.10107 | 28158 ft | 435 kts | 180° |
| 2026-05-08 23:50 | 24.68396 | -98.09804 | 28394 ft | 437 kts | 180° |
| 2026-05-08 23:50 | 24.65361 | -98.09497 | 28630 ft | 439 kts | 180° |
| 2026-05-08 23:50 | 24.62313 | -98.09186 | 28842 ft | 441 kts | 179° |
| 2026-05-08 23:50 | 24.59254 | -98.08880 | 29066 ft | 442 kts | 180° |
| 2026-05-08 23:51 | 24.56189 | -98.08575 | 29283 ft | 443 kts | 180° |
| 2026-05-08 23:51 | 24.53115 | -98.08268 | 29489 ft | 444 kts | 180° |
| 2026-05-08 23:51 | 24.50029 | -98.07963 | 29683 ft | 446 kts | 180° |
| 2026-05-08 23:51 | 24.46934 | -98.07655 | 29860 ft | 448 kts | 180° |
| 2026-05-08 23:52 | 24.43830 | -98.07344 | 30046 ft | 449 kts | 180° |
| 2026-05-08 23:52 | 24.40715 | -98.07032 | 30246 ft | 449 kts | 180° |
| 2026-05-08 23:52 | 24.37600 | -98.06720 | 30499 ft | 449 kts | 180° |
| 2026-05-08 23:52 | 24.34493 | -98.06409 | 30742 ft | 449 kts | 180° |
| 2026-05-08 23:53 | 24.31384 | -98.06101 | 31009 ft | 448 kts | 180° |
| 2026-05-08 23:53 | 24.28283 | -98.05792 | 31264 ft | 447 kts | 180° |
| 2026-05-08 23:53 | 24.25185 | -98.05485 | 31523 ft | 447 kts | 180° |
| 2026-05-08 23:53 | 24.22132 | -98.05183 | 31769 ft | 446 kts | 180° |
| 2026-05-08 23:54 | 24.19042 | -98.04878 | 32013 ft | 445 kts | 180° |
| 2026-05-08 23:54 | 24.15960 | -98.04574 | 32256 ft | 445 kts | 180° |
| 2026-05-08 23:54 | 24.12876 | -98.04270 | 32504 ft | 445 kts | 180° |
| 2026-05-08 23:55 | 24.06718 | -98.03656 | 33005 ft | 444 kts | 180° |
| 2026-05-08 23:55 | 24.03644 | -98.03349 | 33259 ft | 443 kts | 180° |
| 2026-05-08 23:55 | 24.00580 | -98.03043 | 33507 ft | 442 kts | 180° |
| 2026-05-08 23:55 | 23.97517 | -98.02740 | 33753 ft | 441 kts | 180° |
| 2026-05-08 23:56 | 23.94457 | -98.02439 | 33998 ft | 441 kts | 180° |
| 2026-05-08 23:56 | 23.91400 | -98.02137 | 34247 ft | 441 kts | 180° |
| 2026-05-08 23:56 | 23.88348 | -98.01835 | 34483 ft | 440 kts | 180° |
| 2026-05-08 23:56 | 23.85295 | -98.01534 | 34696 ft | 440 kts | 180° |
| 2026-05-08 23:57 | 23.82247 | -98.01235 | 34788 ft | 440 kts | 180° |
| 2026-05-08 23:57 | 23.76162 | -98.00638 | 34802 ft | 439 kts | 180° |
| 2026-05-08 23:58 | 23.70086 | -98.00037 | 34806 ft | 438 kts | 180° |
| 2026-05-08 23:58 | 23.64009 | -97.99435 | 34827 ft | 438 kts | 180° |
| 2026-05-08 23:59 | 23.57974 | -97.98842 | 34820 ft | 439 kts | 180° |
| 2026-05-08 23:59 | 23.51880 | -97.98252 | 34820 ft | 440 kts | 180° |
| 2026-05-09 00:00 | 23.45779 | -97.97658 | 34821 ft | 440 kts | 180° |
| 2026-05-09 00:00 | 23.39684 | -97.97059 | 34814 ft | 440 kts | 180° |
| 2026-05-09 00:01 | 23.33579 | -97.96457 | 34813 ft | 441 kts | 180° |
| 2026-05-09 00:01 | 23.27464 | -97.95859 | 34813 ft | 441 kts | 180° |
| 2026-05-09 00:02 | 23.21346 | -97.95259 | 34808 ft | 441 kts | 180° |
| 2026-05-09 00:02 | 23.15334 | -97.94674 | 34799 ft | 442 kts | 180° |
| 2026-05-09 00:03 | 23.09204 | -97.94079 | 34803 ft | 442 kts | 180° |
| 2026-05-09 00:03 | 23.03065 | -97.93479 | 34793 ft | 443 kts | 180° |
| 2026-05-09 00:04 | 22.96954 | -97.92886 | 34799 ft | 444 kts | 180° |
| 2026-05-09 00:04 | 22.90795 | -97.92286 | 34791 ft | 445 kts | 180° |
| 2026-05-09 00:05 | 22.84627 | -97.91680 | 34794 ft | 445 kts | 179° |
| 2026-05-09 00:05 | 22.78455 | -97.91083 | 34783 ft | 446 kts | 180° |
| 2026-05-09 00:06 | 22.72269 | -97.90488 | 34780 ft | 446 kts | 179° |
| 2026-05-09 00:06 | 22.66082 | -97.89892 | 34780 ft | 447 kts | 179° |
| 2026-05-09 00:07 | 22.59887 | -97.89296 | 34781 ft | 447 kts | 179° |
| 2026-05-09 00:07 | 22.54647 | -97.88789 | 34773 ft | 448 kts | 179° |
| 2026-05-09 00:08 | 22.48448 | -97.88186 | 34792 ft | 447 kts | 179° |
| 2026-05-09 00:08 | 22.42254 | -97.87588 | 34787 ft | 446 kts | 179° |
| 2026-05-09 00:09 | 22.40832 | -97.87452 | 34799 ft | 446 kts | 179° |
| 2026-05-09 00:13 | 22.39360 | -97.87306 | 34843 ft | 445 kts | 179° |
| 2026-05-09 00:13 | 22.33197 | -97.86708 | 34772 ft | 444 kts | 179° |
| 2026-05-09 00:14 | 22.27057 | -97.86411 | 34768 ft | 439 kts | 187° |
| 2026-05-09 00:14 | 22.20995 | -97.86783 | 34768 ft | 439 kts | 187° |
| 2026-05-09 00:15 | 22.14893 | -97.87170 | 34773 ft | 440 kts | 187° |
| 2026-05-09 00:15 | 22.08776 | -97.87555 | 34780 ft | 440 kts | 187° |
| 2026-05-09 00:16 | 22.02657 | -97.87929 | 34784 ft | 440 kts | 187° |
| 2026-05-09 00:16 | 21.96536 | -97.88298 | 34785 ft | 440 kts | 187° |
| 2026-05-09 00:17 | 21.90423 | -97.88675 | 34789 ft | 440 kts | 187° |
| 2026-05-09 00:17 | 21.84310 | -97.89053 | 34792 ft | 440 kts | 187° |
| 2026-05-09 00:18 | 21.78197 | -97.89424 | 34790 ft | 440 kts | 187° |
| 2026-05-09 00:18 | 21.72081 | -97.89795 | 34789 ft | 440 kts | 187° |
| 2026-05-09 00:19 | 21.65961 | -97.90171 | 34792 ft | 440 kts | 187° |
| 2026-05-09 00:19 | 21.59851 | -97.90542 | 34787 ft | 441 kts | 187° |
| 2026-05-09 00:20 | 21.53725 | -97.90919 | 34792 ft | 441 kts | 187° |
| 2026-05-09 00:20 | 21.47591 | -97.91293 | 34602 ft | 442 kts | 187° |
| 2026-05-09 00:20 | 21.44579 | -97.91587 | 34348 ft | 439 kts | 193° |
| 2026-05-09 00:21 | 21.41535 | -97.92166 | 34097 ft | 439 kts | 193° |
| 2026-05-09 00:21 | 21.38568 | -97.92734 | 33868 ft | 439 kts | 193° |
| 2026-05-09 00:21 | 21.35557 | -97.93307 | 33794 ft | 439 kts | 193° |
| 2026-05-09 00:22 | 21.29523 | -97.94450 | 33813 ft | 441 kts | 193° |
| 2026-05-09 00:22 | 21.23464 | -97.95601 | 33821 ft | 442 kts | 193° |
| 2026-05-09 00:23 | 21.17393 | -97.96752 | 33822 ft | 443 kts | 193° |
| 2026-05-09 00:23 | 21.11312 | -97.97899 | 33822 ft | 445 kts | 193° |
| 2026-05-09 00:24 | 21.05210 | -97.99054 | 33819 ft | 445 kts | 193° |
| 2026-05-09 00:24 | 20.99105 | -98.00205 | 33818 ft | 446 kts | 192° |
| 2026-05-09 00:25 | 20.92990 | -98.01356 | 33818 ft | 446 kts | 192° |
| 2026-05-09 00:25 | 20.86866 | -98.02515 | 33816 ft | 447 kts | 192° |
| 2026-05-09 00:26 | 20.80728 | -98.03675 | 33822 ft | 448 kts | 192° |
| 2026-05-09 00:26 | 20.74615 | -98.04828 | 33822 ft | 449 kts | 192° |
| 2026-05-09 00:27 | 20.68451 | -98.05989 | 33825 ft | 450 kts | 192° |
| 2026-05-09 00:27 | 20.62275 | -98.07144 | 33829 ft | 451 kts | 192° |
| 2026-05-09 00:28 | 20.56082 | -98.08301 | 33837 ft | 452 kts | 192° |
| 2026-05-09 00:28 | 20.49874 | -98.09470 | 33772 ft | 455 kts | 192° |
| 2026-05-09 00:28 | 20.46757 | -98.10056 | 33465 ft | 455 kts | 192° |
| 2026-05-09 00:29 | 20.43638 | -98.10643 | 33166 ft | 456 kts | 192° |
| 2026-05-09 00:29 | 20.40511 | -98.11231 | 32868 ft | 456 kts | 192° |
| 2026-05-09 00:29 | 20.37382 | -98.11815 | 32568 ft | 457 kts | 192° |
| 2026-05-09 00:29 | 20.34243 | -98.12398 | 32268 ft | 458 kts | 192° |
| 2026-05-09 00:30 | 20.31091 | -98.12982 | 31970 ft | 460 kts | 192° |
| 2026-05-09 00:30 | 20.27941 | -98.13572 | 31670 ft | 459 kts | 192° |
| 2026-05-09 00:30 | 20.24799 | -98.14165 | 31368 ft | 458 kts | 192° |
| 2026-05-09 00:30 | 20.21670 | -98.14756 | 31073 ft | 456 kts | 192° |
| 2026-05-09 00:31 | 20.18550 | -98.15344 | 30757 ft | 454 kts | 192° |
| 2026-05-09 00:31 | 20.15451 | -98.15926 | 30382 ft | 451 kts | 192° |
| 2026-05-09 00:31 | 20.12365 | -98.16503 | 30002 ft | 449 kts | 192° |
| 2026-05-09 00:31 | 20.09325 | -98.17187 | 29625 ft | 444 kts | 200° |
| 2026-05-09 00:32 | 20.06521 | -98.18482 | 29249 ft | 437 kts | 212° |
| 2026-05-09 00:32 | 20.04100 | -98.20387 | 28871 ft | 431 kts | 225° |
| 2026-05-09 00:32 | 20.02177 | -98.22796 | 28471 ft | 426 kts | 237° |
| 2026-05-09 00:32 | 20.00823 | -98.25571 | 28071 ft | 422 kts | 250° |
| 2026-05-09 00:33 | 20.00052 | -98.28529 | 27678 ft | 420 kts | 258° |
| 2026-05-09 00:33 | 19.99449 | -98.31551 | 27277 ft | 417 kts | 257° |
| 2026-05-09 00:33 | 19.98841 | -98.34559 | 26878 ft | 415 kts | 257° |
| 2026-05-09 00:33 | 19.98233 | -98.37549 | 26478 ft | 412 kts | 257° |
| 2026-05-09 00:34 | 19.97627 | -98.40515 | 26079 ft | 410 kts | 257° |
| 2026-05-09 00:34 | 19.97023 | -98.43470 | 25675 ft | 407 kts | 257° |
| 2026-05-09 00:34 | 19.96427 | -98.46400 | 25277 ft | 405 kts | 257° |
| 2026-05-09 00:34 | 19.95834 | -98.49320 | 24876 ft | 403 kts | 257° |
| 2026-05-09 00:35 | 19.95246 | -98.52218 | 24475 ft | 401 kts | 256° |
| 2026-05-09 00:35 | 19.94856 | -98.54134 | 24209 ft | 399 kts | 256° |
| 2026-05-09 00:35 | 19.94273 | -98.57006 | 23835 ft | 396 kts | 256° |
| 2026-05-09 00:35 | 19.93693 | -98.59859 | 23449 ft | 394 kts | 256° |
| 2026-05-09 00:36 | 19.93117 | -98.62703 | 23048 ft | 392 kts | 256° |
| 2026-05-09 00:36 | 19.92546 | -98.65522 | 22649 ft | 389 kts | 256° |
| 2026-05-09 00:36 | 19.91977 | -98.68322 | 22279 ft | 386 kts | 256° |
| 2026-05-09 00:36 | 19.91411 | -98.71103 | 21887 ft | 385 kts | 256° |
| 2026-05-09 00:37 | 19.90862 | -98.73879 | 21479 ft | 382 kts | 259° |
| 2026-05-09 00:37 | 19.90532 | -98.76677 | 21090 ft | 380 kts | 262° |
| 2026-05-09 00:37 | 19.90228 | -98.79458 | 20714 ft | 378 kts | 262° |
| 2026-05-09 00:37 | 19.89921 | -98.82229 | 20329 ft | 376 kts | 262° |
| 2026-05-09 00:38 | 19.89616 | -98.84981 | 19930 ft | 374 kts | 262° |
| 2026-05-09 00:38 | 19.89310 | -98.87718 | 19531 ft | 372 kts | 262° |
| 2026-05-09 00:38 | 19.89097 | -98.90447 | 19155 ft | 371 kts | 268° |
| 2026-05-09 00:38 | 19.89235 | -98.93184 | 18774 ft | 369 kts | 272° |
| 2026-05-09 00:39 | 19.89421 | -98.95865 | 18356 ft | 357 kts | 272° |
| 2026-05-09 00:39 | 19.89598 | -98.98441 | 18042 ft | 344 kts | 272° |
| 2026-05-09 00:39 | 19.89769 | -99.00929 | 17989 ft | 331 kts | 272° |
| 2026-05-09 00:39 | 19.89934 | -99.03309 | 18000 ft | 316 kts | 272° |
| 2026-05-09 00:40 | 19.90032 | -99.05593 | 17998 ft | 303 kts | 263° |
| 2026-05-09 00:40 | 19.89555 | -99.07737 | 17997 ft | 298 kts | 244° |
| 2026-05-09 00:40 | 19.88419 | -99.09554 | 17695 ft | 295 kts | 224° |
| 2026-05-09 00:41 | 19.84911 | -99.11517 | 17067 ft | 286 kts | 200° |
| 2026-05-09 00:41 | 19.83039 | -99.12212 | 16767 ft | 284 kts | 200° |
| 2026-05-09 00:41 | 19.81177 | -99.12906 | 16465 ft | 283 kts | 200° |
| 2026-05-09 00:41 | 19.79328 | -99.13596 | 16165 ft | 281 kts | 200° |
| 2026-05-09 00:42 | 19.77491 | -99.14283 | 15863 ft | 279 kts | 200° |
| 2026-05-09 00:42 | 19.75660 | -99.14963 | 15558 ft | 278 kts | 200° |
| 2026-05-09 00:42 | 19.73838 | -99.15646 | 15257 ft | 276 kts | 200° |
| 2026-05-09 00:42 | 19.72030 | -99.16324 | 14955 ft | 275 kts | 200° |
| 2026-05-09 00:43 | 19.70228 | -99.16998 | 14660 ft | 273 kts | 200° |
| 2026-05-09 00:43 | 19.68450 | -99.17662 | 14378 ft | 268 kts | 200° |
| 2026-05-09 00:43 | 19.67015 | -99.18198 | 14191 ft | 263 kts | 200° |
| 2026-05-09 00:43 | 19.65258 | -99.18854 | 13956 ft | 257 kts | 200° |
| 2026-05-09 00:44 | 19.63594 | -99.19475 | 13729 ft | 251 kts | 200° |
| 2026-05-09 00:44 | 19.61966 | -99.20083 | 13501 ft | 245 kts | 200° |
| 2026-05-09 00:44 | 19.60372 | -99.20678 | 13273 ft | 241 kts | 200° |
| 2026-05-09 00:44 | 19.58797 | -99.21265 | 13053 ft | 239 kts | 200° |
| 2026-05-09 00:45 | 19.57231 | -99.21849 | 12856 ft | 239 kts | 200° |
| 2026-05-09 00:45 | 19.55666 | -99.22431 | 12651 ft | 237 kts | 201° |
| 2026-05-09 00:45 | 19.54112 | -99.23009 | 12544 ft | 237 kts | 200° |
| 2026-05-09 00:45 | 19.52517 | -99.23464 | 12473 ft | 240 kts | 189° |
| 2026-05-09 00:46 | 19.50844 | -99.23521 | 12118 ft | 238 kts | 181° |
| 2026-05-09 00:46 | 19.49221 | -99.23488 | 11848 ft | 228 kts | 181° |
| 2026-05-09 00:46 | 19.47655 | -99.23455 | 11514 ft | 223 kts | 181° |
| 2026-05-09 00:46 | 19.46119 | -99.23422 | 11181 ft | 218 kts | 181° |
| 2026-05-09 00:47 | 19.44621 | -99.23390 | 10923 ft | 213 kts | 181° |
| 2026-05-09 00:47 | 19.43151 | -99.23364 | 10675 ft | 211 kts | 181° |
| 2026-05-09 00:47 | 19.41679 | -99.23338 | 10436 ft | 211 kts | 181° |
| 2026-05-09 00:47 | 19.40225 | -99.23252 | 10197 ft | 208 kts | 170° |
| 2026-05-09 00:48 | 19.38893 | -99.22682 | 9972 ft | 209 kts | 148° |
| 2026-05-09 00:48 | 19.37859 | -99.21604 | 9747 ft | 211 kts | 126° |
| 2026-05-09 00:48 | 19.37292 | -99.20166 | 9520 ft | 214 kts | 102° |
| 2026-05-09 00:48 | 19.37295 | -99.18626 | 9297 ft | 206 kts | 78° |
| 2026-05-09 00:49 | 19.37832 | -99.17252 | 9075 ft | 201 kts | 59° |
| 2026-05-09 00:49 | 19.38542 | -99.15995 | 8975 ft | 196 kts | 60° |
| 2026-05-09 00:49 | 19.39210 | -99.14807 | 8756 ft | 185 kts | 59° |
| 2026-05-09 00:49 | 19.39848 | -99.13669 | 8528 ft | 175 kts | 58° |
| 2026-05-09 00:50 | 19.40464 | -99.12573 | 8294 ft | 171 kts | 57° |
| 2026-05-09 00:50 | 19.41064 | -99.11503 | 8065 ft | 167 kts | 57° |
| 2026-05-09 00:50 | 19.41651 | -99.10449 | 7784 ft | 165 kts | 57° |
| 2026-05-09 00:50 | 19.42235 | -99.09412 | 7574 ft | 164 kts | 57° |
| 2026-05-09 00:51 | 19.42814 | -99.08379 | 7358 ft | 162 kts | 58° |
| 2026-05-09 00:51 | 19.43356 | -99.07420 | 7304 ft | 133 kts | 59° |
| 2026-05-09 00:51 | 19.43739 | -99.06734 | 7303 ft | 82 kts | 59° |
| 2026-05-09 00:51 | 19.43958 | -99.06348 | 7302 ft | 42 kts | 58° |
| 2026-05-09 00:52 | 19.44098 | -99.06228 | 7303 ft | 22 kts | 34° |
| 2026-05-09 00:52 | 19.44214 | -99.06175 | 7303 ft | 18 kts | 14° |
| 2026-05-09 00:52 | 19.44334 | -99.06165 | 7302 ft | 15 kts | 354° |
| 2026-05-09 00:52 | 19.44403 | -99.06238 | 7303 ft | 15 kts | 294° |
| 2026-05-09 00:53 | 19.44405 | -99.06354 | 7303 ft | 15 kts | 241° |
| 2026-05-09 00:53 | 19.44341 | -99.06467 | 7303 ft | 21 kts | 239° |
| 2026-05-09 00:53 | 19.44265 | -99.06604 | 7303 ft | 22 kts | 239° |
| 2026-05-09 00:53 | 19.44187 | -99.06741 | 7303 ft | 22 kts | 239° |
| 2026-05-09 00:54 | 19.44118 | -99.06863 | 7303 ft | 19 kts | 239° |
| 2026-05-09 00:54 | 19.44049 | -99.06985 | 7303 ft | 19 kts | 239° |
| 2026-05-09 00:54 | 19.43980 | -99.07110 | 7303 ft | 20 kts | 239° |
| 2026-05-09 00:54 | 19.43909 | -99.07237 | 7303 ft | 20 kts | 239° |
| 2026-05-09 00:55 | 19.43835 | -99.07367 | 7303 ft | 21 kts | 239° |
| 2026-05-09 00:55 | 19.43760 | -99.07502 | 7303 ft | 22 kts | 239° |
| 2026-05-09 00:55 | 19.43681 | -99.07641 | 7303 ft | 22 kts | 239° |
| 2026-05-09 00:55 | 19.43606 | -99.07774 | 7303 ft | 20 kts | 240° |
| 2026-05-09 00:56 | 19.43539 | -99.07897 | 7303 ft | 20 kts | 239° |
| 2026-05-09 00:56 | 19.43473 | -99.08010 | 7303 ft | 17 kts | 238° |
| 2026-05-09 00:56 | 19.43410 | -99.08122 | 7303 ft | 18 kts | 240° |
| 2026-05-09 00:56 | 19.43347 | -99.08237 | 7303 ft | 18 kts | 240° |
| 2026-05-09 00:57 | 19.43285 | -99.08348 | 7303 ft | 15 kts | 239° |
| 2026-05-09 00:57 | 19.43257 | -99.08421 | 7303 ft | 8 kts | 282° |
| 2026-05-09 00:57 | 19.43297 | -99.08458 | 7303 ft | 8 kts | 328° |
| 2026-05-09 00:57 | 19.43323 | -99.08474 | 7303 ft | 0 kts | 329° |